Pilot Station, Alaska
Current Conditions -  °F | °C
As of 12:36 PM on Monday 24 Nov 2014 (Local Time) from PASM Reporting Station
Overcast Overcast  
Wind Chill: 14°   Ceiling: 2700
Heat Index: 14°   Visibility: 10mi
Dew Point: 10°   Wind: 0mph
Humidity: 86%   Direction: NA
Pressure: 29.78"   Gusts: NA
Location:  61.94°N, 162.88°W
Report Text: PASM 242136Z AUTO 00000KT 10SM OVC027 M10/M12 A2978 RMK AO1
Loading
Personal Weather Stations






























Interactive Weather Map New forecast layout! Learn more

10-Day Weather Forecast

Advertisements
Track Severe Weather on mobile